Time;durP1;ratioP1;P1;durP2;ratioP2;P2;SDS_P1;SDS_P2;PMS_P1;PMS_P2;Temp;Humidity;BMP_temperature;BMP_pressure;BME280_temperature;BME280_humidity;BME280_pressure;Samples;Min_cycle;Max_cycle;Signal;HPM_P1;HPM_P2
2023/12/01 00:00:33;;;;;;;19.23;12.32;;;;;;;2.85;77.88;95013.69;4827610;29;20050;-77
2023/12/01 00:03:00;;;;;;;19.52;13.13;;;;;;;2.84;78.05;95017.25;4827057;29;20058;-78
2023/12/01 00:05:28;;;;;;;21.35;13.70;;;;;;;2.85;77.75;95008.53;4827102;29;20077;-78
2023/12/01 00:07:57;;;;;;;20.88;13.57;;;;;;;2.88;78.98;95015.13;4827206;29;20093;-80
2023/12/01 00:10:25;;;;;;;18.25;12.18;;;;;;;2.91;78.70;95019.09;4825961;29;20574;-79
2023/12/01 00:12:52;;;;;;;18.88;12.10;;;;;;;2.92;78.26;95023.31;4825588;29;20055;-80
2023/12/01 00:15:20;;;;;;;20.63;14.48;;;;;;;2.94;78.76;95026.50;4825661;29;20055;-80
2023/12/01 00:17:48;;;;;;;20.35;12.77;;;;;;;2.97;79.01;95032.09;4825685;29;20149;-80
2023/12/01 00:20:15;;;;;;;19.08;13.05;;;;;;;3.00;79.14;95030.97;4825955;29;20059;-80
2023/12/01 00:22:43;;;;;;;17.73;11.05;;;;;;;3.00;79.02;95025.81;4826430;29;20081;-80
2023/12/01 00:25:12;;;;;;;19.83;13.13;;;;;;;3.03;80.80;95015.97;4826170;29;20046;-79
2023/12/01 00:27:39;;;;;;;19.95;13.05;;;;;;;3.09;80.41;95014.47;4826771;29;20149;-80
2023/12/01 00:30:08;;;;;;;19.90;13.10;;;;;;;3.08;79.28;95023.16;4826868;29;20104;-79
2023/12/01 00:32:35;;;;;;;20.30;13.02;;;;;;;3.08;78.70;95016.25;4830389;29;20092;-79
2023/12/01 00:35:03;;;;;;;18.38;12.18;;;;;;;3.07;78.35;95026.72;4833105;29;20107;-79
2023/12/01 00:37:31;;;;;;;17.40;11.32;;;;;;;3.07;78.33;95019.78;4826833;29;20061;-80
2023/12/01 00:39:59;;;;;;;19.02;12.63;;;;;;;3.07;77.85;95024.94;4826325;29;20104;-80
2023/12/01 00:42:28;;;;;;;16.52;11.38;;;;;;;3.06;77.63;95022.53;4825563;29;20054;-80
2023/12/01 00:44:56;;;;;;;21.40;12.95;;;;;;;3.06;77.85;95018.19;4825113;29;20513;-79
2023/12/01 00:47:23;;;;;;;19.27;13.30;;;;;;;3.06;78.09;95028.50;4826223;29;20483;-79
2023/12/01 00:49:51;;;;;;;16.83;11.65;;;;;;;3.09;79.34;95019.63;4826422;29;20563;-79
2023/12/01 00:52:19;;;;;;;16.33;11.02;;;;;;;3.12;79.33;95014.13;4825666;29;20499;-79
2023/12/01 00:54:46;;;;;;;16.35;10.77;;;;;;;3.13;78.11;95010.56;4825842;29;20058;-79
2023/12/01 00:57:14;;;;;;;17.08;12.23;;;;;;;3.15;77.88;95005.22;4825779;29;20123;-80
2023/12/01 00:59:42;;;;;;;17.20;12.00;;;;;;;3.13;77.96;95015.72;4826088;29;20509;-80
2023/12/01 01:02:10;;;;;;;18.15;12.95;;;;;;;3.15;79.30;95024.09;4826061;29;20090;-79
2023/12/01 01:04:38;;;;;;;18.45;12.68;;;;;;;3.18;81.11;95034.03;4825316;29;20062;-79
2023/12/01 01:07:05;;;;;;;16.98;12.07;;;;;;;3.18;80.20;95028.09;4825404;29;20058;-80
2023/12/01 01:09:33;;;;;;;18.30;12.20;;;;;;;3.16;78.97;95023.09;4824976;29;20170;-80
2023/12/01 01:12:01;;;;;;;16.63;12.32;;;;;;;3.15;79.56;95018.94;4825362;29;20054;-80
2023/12/01 01:14:29;;;;;;;18.95;13.48;;;;;;;3.16;79.06;95012.00;4824770;29;20051;-80
2023/12/01 01:16:58;;;;;;;17.80;11.73;;;;;;;3.17;79.25;95014.41;4825311;29;20413;-80
2023/12/01 01:19:26;;;;;;;18.35;11.93;;;;;;;3.21;81.01;95013.06;4825326;29;20054;-80
2023/12/01 01:21:53;;;;;;;18.50;12.30;;;;;;;3.24;81.00;95012.72;4824988;29;20062;-80
2023/12/01 01:24:21;;;;;;;18.67;12.88;;;;;;;3.24;80.39;95012.72;4824820;29;20544;-80
2023/12/01 01:26:49;;;;;;;19.00;12.07;;;;;;;3.24;79.55;95007.56;4825243;29;20486;-80
2023/12/01 01:29:16;;;;;;;19.10;13.52;;;;;;;3.23;79.00;95016.25;4827012;29;20086;-80
2023/12/01 01:31:45;;;;;;;17.48;11.80;;;;;;;3.21;78.53;95020.78;4827525;29;20081;-80
2023/12/01 01:34:14;;;;;;;16.60;11.77;;;;;;;3.20;79.16;95032.09;4826436;29;20111;-78
2023/12/01 01:36:44;;;;;;;17.15;11.55;;;;;;;3.19;79.21;95016.78;4825802;29;20091;-77
2023/12/01 01:39:12;;;;;;;17.80;12.20;;;;;;;3.19;79.21;95024.53;4828059;29;20072;-77
2023/12/01 01:41:39;;;;;;;18.13;12.80;;;;;;;3.20;79.34;95019.19;4827132;29;20073;-77
2023/12/01 01:44:07;;;;;;;18.38;12.38;;;;;;;3.18;78.88;95013.41;4826714;29;20578;-78
2023/12/01 01:46:36;;;;;;;18.83;13.05;;;;;;;3.17;78.66;95006.69;4826460;29;20137;-77
2023/12/01 01:49:05;;;;;;;21.73;13.65;;;;;;;3.15;78.67;95008.63;4826585;29;20051;-78
2023/12/01 01:51:35;;;;;;;17.20;12.73;;;;;;;3.15;78.99;95015.53;4826558;29;20054;-77
2023/12/01 01:54:03;;;;;;;19.38;12.82;;;;;;;3.15;79.48;95024.09;4826745;29;20050;-78
2023/12/01 01:56:33;;;;;;;19.58;13.25;;;;;;;3.14;79.36;95032.78;4826594;29;20161;-77
2023/12/01 01:59:01;;;;;;;20.33;13.07;;;;;;;3.15;80.83;95031.81;4826670;29;20432;-78
2023/12/01 02:01:29;;;;;;;20.00;12.68;;;;;;;3.19;82.13;95032.25;4826493;29;20478;-78
2023/12/01 02:03:57;;;;;;;18.65;12.77;;;;;;;3.21;82.34;95038.81;4826445;29;20131;-77
2023/12/01 02:06:30;;;;;;;19.05;12.30;;;;;;;3.20;81.70;95036.44;4826128;29;20057;-77
2023/12/01 02:09:00;;;;;;;19.00;12.23;;;;;;;3.21;81.54;95036.25;4829576;29;20139;-78
2023/12/01 02:11:28;;;;;;;19.05;12.75;;;;;;;3.19;81.07;95048.53;4830375;29;20054;-77
2023/12/01 02:13:59;;;;;;;17.88;12.15;;;;;;;3.17;80.67;95053.06;4836457;29;20050;-79
2023/12/01 02:16:28;;;;;;;18.42;12.77;;;;;;;3.18;80.85;95043.53;4843020;29;20065;-77
2023/12/01 02:18:56;;;;;;;18.67;12.30;;;;;;;3.19;81.33;95037.41;4847078;29;20065;-77
2023/12/01 02:21:25;;;;;;;17.45;11.95;;;;;;;3.18;81.23;95036.59;4842681;29;20058;-77
2023/12/01 02:23:55;;;;;;;17.65;12.40;;;;;;;3.16;80.33;95051.44;4832562;29;20047;-78
2023/12/01 02:26:23;;;;;;;19.10;12.02;;;;;;;3.15;80.53;95054.19;4830837;29;20137;-78
2023/12/01 02:28:51;;;;;;;19.02;12.25;;;;;;;3.12;80.64;95055.34;4828412;29;20073;-77
2023/12/01 02:31:19;;;;;;;17.48;12.20;;;;;;;3.12;80.31;95054.53;4828739;29;20084;-77
2023/12/01 02:33:47;;;;;;;17.85;11.63;;;;;;;3.10;80.01;95057.28;4829694;29;20054;-77
2023/12/01 02:36:15;;;;;;;15.82;11.10;;;;;;;3.08;80.55;95059.22;4829644;29;20145;-78
2023/12/01 02:38:42;;;;;;;16.33;9.98;;;;;;;3.05;81.99;95044.91;4829486;29;20124;-77
2023/12/01 02:41:12;;;;;;;17.55;12.15;;;;;;;3.06;82.22;95036.25;4828988;29;20063;-78
2023/12/01 02:43:39;;;;;;;17.77;12.02;;;;;;;3.08;82.07;95033.47;4829080;29;20669;-78
2023/12/01 02:46:07;;;;;;;15.48;11.02;;;;;;;3.09;81.09;95022.19;4828584;29;20074;-78
2023/12/01 02:48:35;;;;;;;19.63;12.10;;;;;;;3.06;80.84;95018.19;4828655;29;20516;-78
2023/12/01 02:51:03;;;;;;;16.42;11.25;;;;;;;3.07;80.69;95026.72;4829093;29;20055;-77
2023/12/01 02:53:31;;;;;;;18.42;12.25;;;;;;;3.07;81.66;95031.88;4829385;29;20054;-77
2023/12/01 02:55:58;;;;;;;16.95;11.38;;;;;;;3.08;82.87;95043.78;4829079;29;20066;-77
2023/12/01 02:58:27;;;;;;;36.22;13.65;;;;;;;3.15;84.01;95036.16;4830287;29;20133;-77
2023/12/01 03:00:55;;;;;;;26.58;13.90;;;;;;;3.19;84.42;95040.81;4829311;29;20059;-77
2023/12/01 03:03:23;;;;;;;19.90;12.85;;;;;;;3.22;85.46;95040.44;4829461;29;20133;-77
2023/12/01 03:05:50;;;;;;;25.88;14.77;;;;;;;3.25;85.36;95049.59;4828263;29;20114;-77
2023/12/01 03:08:18;;;;;;;25.67;14.23;;;;;;;3.25;86.07;95055.53;4828391;29;20058;-78
2023/12/01 03:10:48;;;;;;;23.65;15.02;;;;;;;3.25;86.07;95047.81;4828143;29;20541;-77
2023/12/01 03:13:15;;;;;;;22.02;14.00;;;;;;;3.25;84.66;95044.44;4827645;29;20090;-77
2023/12/01 03:15:44;;;;;;;22.13;14.43;;;;;;;3.18;84.16;95039.19;4827602;29;20133;-78
2023/12/01 03:18:12;;;;;;;23.10;13.38;;;;;;;3.15;83.81;95044.69;4827343;29;20069;-77
2023/12/01 03:20:41;;;;;;;25.45;14.20;;;;;;;3.13;84.19;95046.66;4826856;29;20050;-77
2023/12/01 03:23:08;;;;;;;23.13;14.73;;;;;;;3.11;83.66;95046.03;4826983;29;20247;-77
2023/12/01 03:25:36;;;;;;;24.02;13.70;;;;;;;3.07;82.40;95034.44;4828417;29;20050;-78
2023/12/01 03:28:04;;;;;;;23.77;13.88;;;;;;;3.03;82.40;95033.19;4827812;29;20470;-77
2023/12/01 03:30:32;;;;;;;25.20;14.60;;;;;;;2.98;82.27;95027.78;4827543;29;20058;-78
2023/12/01 03:33:01;;;;;;;21.30;12.88;;;;;;;2.97;83.58;95032.09;4827302;29;20097;-77
2023/12/01 03:35:28;;;;;;;23.15;14.05;;;;;;;3.01;84.62;95032.56;4827092;29;20093;-77
2023/12/01 03:37:57;;;;;;;22.38;13.82;;;;;;;3.02;83.83;95045.28;4826970;29;20402;-77
2023/12/01 03:40:26;;;;;;;21.20;13.00;;;;;;;3.00;83.93;95033.56;4827555;29;20525;-77
2023/12/01 03:42:54;;;;;;;28.20;14.57;;;;;;;3.02;84.60;95050.44;4827241;29;20054;-77
2023/12/01 03:45:22;;;;;;;31.67;16.05;;;;;;;3.08;85.33;95044.59;4827481;29;20093;-77
2023/12/01 03:47:51;;;;;;;21.98;14.15;;;;;;;3.12;85.10;95046.81;4826699;29;20081;-77
2023/12/01 03:50:21;;;;;;;27.88;14.93;;;;;;;3.17;85.02;95057.38;4826773;29;20066;-77
2023/12/01 03:52:51;;;;;;;24.88;14.90;;;;;;;3.18;85.40;95059.00;4826617;29;20065;-77
2023/12/01 03:55:19;;;;;;;21.70;13.13;;;;;;;3.19;85.23;95055.44;4827306;29;20063;-77
2023/12/01 03:57:47;;;;;;;23.30;14.40;;;;;;;3.17;83.58;95047.91;4827052;29;20082;-77
2023/12/01 04:00:17;;;;;;;24.05;14.48;;;;;;;3.11;84.35;95043.44;4827481;29;20512;-77
2023/12/01 04:02:48;;;;;;;23.00;14.55;;;;;;;3.02;83.51;95034.97;4826799;29;20097;-77
2023/12/01 04:05:18;;;;;;;23.27;14.23;;;;;;;2.94;83.67;95040.19;4827016;29;20058;-77
2023/12/01 04:07:52;;;;;;;23.13;13.10;;;;;;;2.96;84.80;95034.88;4826506;29;20477;-77
2023/12/01 04:10:24;;;;;;;24.55;14.43;;;;;;;3.03;85.57;95035.78;4826420;29;20109;-77
2023/12/01 04:12:52;;;;;;;46.80;18.77;;;;;;;3.08;86.73;95036.03;4826384;29;20068;-77
2023/12/01 04:15:24;;;;;;;29.60;16.65;;;;;;;3.13;87.04;95038.09;4826301;29;20087;-76
2023/12/01 04:17:52;;;;;;;26.80;15.82;;;;;;;3.13;86.07;95033.75;4826334;29;20050;-77
2023/12/01 04:20:25;;;;;;;23.05;14.57;;;;;;;3.08;85.78;95041.19;4826359;29;20054;-77
2023/12/01 04:22:58;;;;;;;22.42;14.18;;;;;;;3.11;87.27;95040.06;4826229;29;20428;-77
2023/12/01 04:25:27;;;;;;;37.88;17.75;;;;;;;3.12;87.09;95046.81;4826018;29;20054;-77
2023/12/01 04:27:57;;;;;;;27.55;15.77;;;;;;;3.07;86.67;95040.41;4825875;29;20091;-77
2023/12/01 04:30:25;;;;;;;22.75;14.02;;;;;;;3.05;86.27;95034.63;4825663;29;20133;-77
2023/12/01 04:32:54;;;;;;;24.38;14.55;;;;;;;3.03;86.05;95040.91;4826256;29;20054;-77
2023/12/01 04:35:26;;;;;;;34.40;14.60;;;;;;;3.08;86.77;95044.59;4826660;29;20505;-77
2023/12/01 04:37:55;;;;;;;25.40;16.00;;;;;;;3.12;87.41;95057.91;4825615;29;20107;-77
2023/12/01 04:40:23;;;;;;;29.33;15.98;;;;;;;3.14;87.67;95057.75;4826868;29;20126;-77
2023/12/01 04:42:52;;;;;;;40.55;16.67;;;;;;;3.13;87.91;95056.94;4827476;29;20079;-77
2023/12/01 04:45:22;;;;;;;27.73;16.08;;;;;;;3.10;87.65;95062.44;4826951;29;20065;-77
2023/12/01 04:47:51;;;;;;;29.98;16.40;;;;;;;3.06;87.40;95049.13;4826149;29;20093;-77
2023/12/01 04:50:20;;;;;;;22.48;14.77;;;;;;;3.03;87.64;95057.16;4826291;29;20576;-77
2023/12/01 04:52:50;;;;;;;24.85;15.10;;;;;;;3.01;87.07;95066.06;4825867;29;20509;-78
2023/12/01 04:55:20;;;;;;;23.10;14.30;;;;;;;2.98;85.76;95074.13;4826219;29;20434;-77
2023/12/01 04:57:48;;;;;;;22.02;14.18;;;;;;;2.91;85.02;95073.19;4825751;29;20137;-78
2023/12/01 05:00:21;;;;;;;23.98;15.15;;;;;;;2.83;83.97;95072.28;4825460;29;20061;-77
2023/12/01 05:02:51;;;;;;;25.63;15.70;;;;;;;2.79;83.66;95052.19;4825662;29;20545;-77
2023/12/01 05:05:20;;;;;;;28.23;15.48;;;;;;;2.77;84.01;95061.88;4825739;29;20580;-77
2023/12/01 05:07:50;;;;;;;24.35;14.32;;;;;;;2.79;85.29;95058.16;4825647;29;20501;-77
2023/12/01 05:10:21;;;;;;;40.05;16.00;;;;;;;2.88;86.67;95069.19;4825563;29;20097;-77
2023/12/01 05:12:50;;;;;;;33.58;15.95;;;;;;;2.98;88.13;95068.97;4826020;29;20054;-77
2023/12/01 05:15:20;;;;;;;36.13;17.08;;;;;;;3.04;88.65;95070.84;4825491;29;20083;-77
2023/12/01 05:17:49;;;;;;;31.17;15.43;;;;;;;3.05;89.08;95070.69;4825478;29;20050;-78
2023/12/01 05:20:18;;;;;;;38.78;18.58;;;;;;;3.09;89.47;95082.25;4825580;29;20509;-77
2023/12/01 05:22:47;;;;;;;32.05;16.27;;;;;;;3.15;89.64;95074.78;4825534;29;20057;-77
2023/12/01 05:25:15;;;;;;;28.67;15.63;;;;;;;3.16;89.30;95068.69;4826582;29;20432;-77
2023/12/01 05:27:46;;;;;;;22.88;14.60;;;;;;;3.05;87.23;95072.47;4828858;29;20134;-76
2023/12/01 05:30:15;;;;;;;22.85;14.00;;;;;;;2.99;86.85;95068.78;4856635;29;20042;-79
2023/12/01 05:32:44;;;;;;;18.42;12.52;;;;;;;2.96;87.58;95086.38;4863211;29;20041;-79
2023/12/01 05:35:13;;;;;;;25.13;15.10;;;;;;;2.99;87.63;95075.72;4855787;29;20046;-78
2023/12/01 05:37:41;;;;;;;22.05;13.70;;;;;;;2.96;87.35;95068.34;4840713;29;20413;-78
2023/12/01 05:40:14;;;;;;;63.58;19.98;;;;;;;2.96;87.33;95069.16;4841505;29;20058;-77
2023/12/01 05:42:43;;;;;;;29.75;15.30;;;;;;;3.01;88.51;95078.94;4834128;29;20106;-78
2023/12/01 05:45:14;;;;;;;29.63;15.93;;;;;;;3.02;88.34;95080.56;4834383;29;20136;-78
2023/12/01 05:47:44;;;;;;;25.98;15.43;;;;;;;3.01;88.67;95084.09;4826043;29;20050;-78
2023/12/01 05:50:13;;;;;;;33.45;19.48;;;;;;;2.96;88.22;95070.94;4825828;29;20514;-77
2023/12/01 05:52:42;;;;;;;30.50;18.42;;;;;;;2.89;87.01;95056.16;4824540;29;20058;-77
2023/12/01 05:55:14;;;;;;;26.27;16.55;;;;;;;2.85;86.16;95060.03;4827097;29;20069;-77
2023/12/01 05:57:45;;;;;;;25.75;15.55;;;;;;;2.84;85.53;95070.50;4827969;29;20080;-77
2023/12/01 06:00:17;;;;;;;26.05;14.40;;;;;;;2.83;86.70;95077.44;4833100;29;20061;-77
2023/12/01 06:02:45;;;;;;;26.13;14.88;;;;;;;2.87;87.25;95083.84;4849269;29;20054;-77
2023/12/01 06:05:15;;;;;;;22.00;13.50;;;;;;;2.93;88.25;95084.13;4847632;29;20144;-77
2023/12/01 06:07:44;;;;;;;23.27;15.82;;;;;;;2.92;86.98;95087.69;4830681;29;20486;-76
2023/12/01 06:10:13;;;;;;;22.15;14.68;;;;;;;2.89;85.99;95097.38;4842203;29;20185;-77
2023/12/01 06:12:41;;;;;;;20.50;13.38;;;;;;;2.86;86.00;95092.56;4838299;29;20054;-77
2023/12/01 06:15:10;;;;;;;22.92;13.68;;;;;;;2.86;86.69;95082.25;4822965;29;20508;-77
2023/12/01 06:17:41;;;;;;;24.42;15.68;;;;;;;2.85;86.03;95090.94;4822678;29;20082;-77
2023/12/01 06:20:17;;;;;;;22.05;14.63;;;;;;;2.82;85.00;95087.91;4822977;29;20055;-77
2023/12/01 06:22:48;;;;;;;21.27;14.32;;;;;;;2.78;84.48;95094.38;4823364;29;20054;-77
2023/12/01 06:25:17;;;;;;;24.13;14.88;;;;;;;2.76;84.76;95091.97;4823488;29;20059;-77
2023/12/01 06:27:45;;;;;;;28.42;14.05;;;;;;;2.78;85.72;95084.88;4823445;29;20126;-77
2023/12/01 06:30:14;;;;;;;24.00;15.27;;;;;;;2.84;87.46;95084.22;4823463;29;20062;-77
2023/12/01 06:32:45;;;;;;;26.05;15.75;;;;;;;2.86;87.17;95081.44;4824630;29;20519;-78
2023/12/01 06:35:14;;;;;;;27.70;16.95;;;;;;;2.82;85.60;95085.31;4825431;29;20090;-77
2023/12/01 06:37:43;;;;;;;26.88;17.55;;;;;;;2.76;84.69;95099.69;4825030;29;20099;-77
2023/12/01 06:40:16;;;;;;;27.73;17.35;;;;;;;2.72;84.87;95101.00;4825461;29;20107;-77
2023/12/01 06:42:45;;;;;;;31.02;16.88;;;;;;;2.74;85.58;95109.38;4824426;29;20118;-79
2023/12/01 06:45:14;;;;;;;24.90;16.70;;;;;;;2.73;85.51;95110.31;4823600;29;20436;-80
2023/12/01 06:47:46;;;;;;;24.52;15.52;;;;;;;2.70;84.52;95108.09;4823447;29;20086;-79
2023/12/01 06:50:15;;;;;;;24.50;15.57;;;;;;;2.67;84.10;95113.59;4823804;29;20501;-79
2023/12/01 06:52:43;;;;;;;28.63;14.98;;;;;;;2.71;85.95;95130.28;4823633;29;20149;-79
2023/12/01 06:55:11;;;;;;;24.35;16.80;;;;;;;2.76;86.62;95125.44;4826136;29;20479;-79
2023/12/01 06:57:42;;;;;;;22.75;14.10;;;;;;;2.72;85.09;95126.75;4826273;29;20592;-80
2023/12/01 07:00:28;;;;;;;21.92;14.25;;;;;;;2.70;84.27;95122.75;4826538;29;20089;-79
2023/12/01 07:03:01;;;;;;;23.95;15.75;;;;;;;2.68;83.70;95130.63;4826590;29;20050;-79
2023/12/01 07:05:31;;;;;;;24.05;14.85;;;;;;;2.66;83.40;95122.28;4830359;29;20097;-79
2023/12/01 07:08:00;;;;;;;26.35;15.70;;;;;;;2.61;82.99;95134.88;4831349;29;20061;-80
2023/12/01 07:10:28;;;;;;;22.42;14.68;;;;;;;2.59;83.11;95136.81;4831582;29;20058;-79
2023/12/01 07:12:56;;;;;;;24.13;14.20;;;;;;;2.60;84.59;95133.25;4829237;29;20088;-79
2023/12/01 07:15:24;;;;;;;24.63;15.18;;;;;;;2.63;84.61;95143.22;4826219;29;20115;-79
2023/12/01 07:17:55;;;;;;;24.30;14.20;;;;;;;2.64;84.90;95152.53;4826985;29;20138;-77
2023/12/01 07:20:25;;;;;;;20.98;14.35;;;;;;;2.69;85.82;95147.69;4828068;29;20058;-78
2023/12/01 07:22:53;;;;;;;22.50;14.75;;;;;;;2.68;84.87;95143.50;4826299;29;20058;-79
2023/12/01 07:25:22;;;;;;;24.65;14.32;;;;;;;2.65;84.71;95159.31;4826098;29;20222;-79
2023/12/01 07:27:54;;;;;;;23.35;13.70;;;;;;;2.68;85.67;95159.75;4826288;29;20089;-79
2023/12/01 07:30:22;;;;;;;23.27;14.90;;;;;;;2.73;85.97;95155.88;4825856;29;20091;-79
2023/12/01 07:32:51;;;;;;;26.30;15.40;;;;;;;2.79;85.85;95162.94;4826543;29;20050;-78
2023/12/01 07:35:19;;;;;;;32.00;14.60;;;;;;;2.83;87.18;95153.91;4825883;29;20051;-79
2023/12/01 07:37:51;;;;;;;24.00;14.75;;;;;;;2.83;86.53;95146.97;4825978;29;20134;-79
2023/12/01 07:40:20;;;;;;;22.38;14.38;;;;;;;2.84;86.73;95147.75;4826057;29;20149;-79
2023/12/01 07:42:48;;;;;;;27.13;15.52;;;;;;;2.81;86.05;95148.91;4826356;29;20085;-79
2023/12/01 07:45:18;;;;;;;28.10;15.57;;;;;;;2.82;85.25;95152.28;4826259;29;20137;-79
2023/12/01 07:47:46;;;;;;;23.92;15.00;;;;;;;2.85;86.16;95142.44;4825830;29;20130;-79
2023/12/01 07:50:14;;;;;;;25.40;15.52;;;;;;;2.86;85.08;95133.78;4826054;29;20086;-79
2023/12/01 07:52:42;;;;;;;24.45;15.27;;;;;;;2.82;84.18;95129.94;4825863;29;20445;-79
2023/12/01 07:55:12;;;;;;;25.00;15.25;;;;;;;2.80;85.07;95129.28;4825304;29;20509;-79
2023/12/01 07:57:40;;;;;;;26.50;16.55;;;;;;;2.80;85.32;95144.75;4825479;29;20077;-79
2023/12/01 08:00:14;;;;;;;26.15;15.73;;;;;;;2.77;84.35;95144.28;4825377;29;20085;-79
2023/12/01 08:02:42;;;;;;;28.65;15.68;;;;;;;2.77;84.98;95145.06;4825763;29;20070;-79
2023/12/01 08:05:13;;;;;;;25.52;15.23;;;;;;;2.80;85.81;95147.31;4824708;29;20074;-79
2023/12/01 08:07:42;;;;;;;24.20;15.27;;;;;;;2.83;85.99;95159.84;4825678;29;20065;-79
2023/12/01 08:10:14;;;;;;;25.25;15.00;;;;;;;2.81;85.34;95163.56;4825828;29;20046;-79
2023/12/01 08:12:44;;;;;;;26.30;16.60;;;;;;;2.83;85.14;95167.56;4825623;29;20122;-78
2023/12/01 08:15:12;;;;;;;23.40;15.43;;;;;;;2.85;84.15;95177.72;4826435;29;20069;-79
2023/12/01 08:17:40;;;;;;;22.25;15.20;;;;;;;2.87;83.92;95193.81;4825288;29;20055;-79
2023/12/01 08:20:10;;;;;;;23.55;14.75;;;;;;;2.88;84.17;95198.75;4825653;29;20046;-79
2023/12/01 08:22:38;;;;;;;24.38;15.35;;;;;;;2.89;84.89;95194.44;4826044;29;20054;-79
2023/12/01 08:25:08;;;;;;;20.58;13.35;;;;;;;2.88;84.49;95198.75;4826044;29;20054;-79
2023/12/01 08:27:36;;;;;;;22.83;14.63;;;;;;;2.84;83.66;95189.78;4825692;29;20141;-79
2023/12/01 08:30:07;;;;;;;23.02;14.00;;;;;;;2.83;83.12;95195.09;4825462;29;20133;-80
2023/12/01 08:32:34;;;;;;;22.58;14.52;;;;;;;2.80;82.85;95193.66;4825585;29;20050;-79
2023/12/01 08:35:03;;;;;;;19.45;13.10;;;;;;;2.76;82.39;95189.81;4825183;29;20145;-79
2023/12/01 08:37:31;;;;;;;25.25;13.90;;;;;;;2.73;82.53;95174.69;4825375;29;20054;-79
2023/12/01 08:39:58;;;;;;;22.63;13.82;;;;;;;2.68;82.55;95175.19;4824952;29;20081;-79
2023/12/01 08:42:26;;;;;;;20.63;12.95;;;;;;;2.67;82.89;95177.97;4824826;29;20123;-79
2023/12/01 08:44:54;;;;;;;19.95;12.88;;;;;;;2.65;82.48;95177.31;4824716;29;20078;-79
2023/12/01 08:47:23;;;;;;;22.95;13.45;;;;;;;2.65;83.43;95188.41;4824624;29;20080;-79
2023/12/01 08:49:50;;;;;;;20.95;13.13;;;;;;;2.65;83.01;95197.91;4824659;29;20077;-79
2023/12/01 08:52:18;;;;;;;22.85;14.15;;;;;;;2.65;82.72;95193.56;4824826;29;20086;-79
2023/12/01 08:54:46;;;;;;;20.20;12.98;;;;;;;2.64;82.58;95193.72;4825370;29;20114;-79
2023/12/01 08:57:13;;;;;;;30.35;14.05;;;;;;;2.61;82.14;95200.03;4824309;29;20062;-79
2023/12/01 08:59:41;;;;;;;21.35;12.73;;;;;;;2.57;82.21;95210.81;4824542;29;20081;-78
2023/12/01 09:02:09;;;;;;;22.38;13.45;;;;;;;2.56;83.02;95193.75;4825021;29;20054;-79
2023/12/01 09:04:42;;;;;;;19.05;12.32;;;;;;;2.62;84.73;95190.50;4824786;29;20057;-79
2023/12/01 09:07:09;;;;;;;20.50;13.27;;;;;;;2.66;85.05;95190.00;4824851;29;20106;-79
2023/12/01 09:09:37;;;;;;;22.65;14.05;;;;;;;2.69;84.25;95194.03;4824659;29;20050;-79
2023/12/01 09:12:05;;;;;;;23.70;14.88;;;;;;;2.69;83.23;95196.63;4824978;29;20058;-78
2023/12/01 09:14:32;;;;;;;23.08;13.50;;;;;;;2.68;82.59;95187.28;4824584;29;20062;-79
2023/12/01 09:17:00;;;;;;;23.08;13.90;;;;;;;2.69;82.81;95194.03;4824614;29;20111;-79
2023/12/01 09:19:27;;;;;;;21.88;13.52;;;;;;;2.69;82.78;95194.03;4824833;29;20517;-79
2023/12/01 09:21:57;;;;;;;23.35;13.85;;;;;;;2.71;82.44;95194.66;4824825;29;20501;-78
2023/12/01 09:24:24;;;;;;;22.88;13.27;;;;;;;2.77;83.80;95191.41;4824459;29;20065;-78
2023/12/01 09:26:52;;;;;;;62.38;17.70;;;;;;;2.92;86.21;95188.16;4824258;29;20061;-79
2023/12/01 09:29:20;;;;;;;22.20;14.20;;;;;;;3.03;86.79;95195.47;4824434;29;20058;-79
2023/12/01 09:31:48;;;;;;;21.65;14.57;;;;;;;3.07;85.19;95196.75;4824446;29;20054;-79
2023/12/01 09:34:16;;;;;;;20.30;13.43;;;;;;;3.04;83.33;95207.38;4824466;29;20077;-79
2023/12/01 09:36:44;;;;;;;22.40;13.60;;;;;;;3.00;82.70;95201.78;4824156;29;20082;-78
2023/12/01 09:39:14;;;;;;;21.67;13.10;;;;;;;2.99;83.34;95181.34;4824449;29;20051;-79
2023/12/01 09:41:43;;;;;;;20.67;13.55;;;;;;;3.01;82.64;95166.50;4824303;29;20054;-79
2023/12/01 09:44:11;;;;;;;23.50;13.70;;;;;;;2.96;81.74;95163.66;4823944;29;20061;-79
2023/12/01 09:46:44;;;;;;;21.10;12.90;;;;;;;2.96;83.12;95174.75;4823949;29;20531;-78
2023/12/01 09:49:11;;;;;;;19.08;12.60;;;;;;;3.00;82.71;95180.38;4825216;29;20138;-79
2023/12/01 09:51:39;;;;;;;23.70;13.15;;;;;;;3.03;82.83;95185.97;4825000;29;20497;-78
2023/12/01 09:54:07;;;;;;;21.50;12.60;;;;;;;3.11;82.41;95179.19;4823822;29;20086;-79
2023/12/01 09:56:36;;;;;;;20.90;12.73;;;;;;;3.12;82.00;95193.66;4823651;29;20058;-79
2023/12/01 09:59:05;;;;;;;22.85;14.55;;;;;;;3.12;82.48;95204.78;4823812;29;20208;-79
2023/12/01 10:01:34;;;;;;;21.08;13.35;;;;;;;3.14;83.27;95213.13;4823817;29;20059;-79
2023/12/01 10:04:01;;;;;;;22.65;14.25;;;;;;;3.18;83.10;95218.75;4824799;29;20058;-79
2023/12/01 10:06:29;;;;;;;24.02;13.95;;;;;;;3.22;84.43;95222.59;4823378;29;20142;-79
2023/12/01 10:08:57;;;;;;;18.02;12.82;;;;;;;3.26;84.12;95229.03;4823288;29;20054;-79
2023/12/01 10:11:25;;;;;;;23.42;14.70;;;;;;;3.26;82.86;95222.09;4823436;29;20157;-79
2023/12/01 10:13:55;;;;;;;24.33;16.17;;;;;;;3.27;82.85;95205.66;4823834;29;20059;-79
2023/12/01 10:16:23;;;;;;;23.00;13.57;;;;;;;3.23;81.60;95201.81;4823543;29;20110;-79
2023/12/01 10:18:59;;;;;;;23.38;15.48;;;;;;;3.15;80.95;95204.44;4823505;29;20061;-79
2023/12/01 10:21:45;;;;;;;22.50;15.15;;;;;;;3.13;82.11;95196.09;4823725;29;20056;-79
2023/12/01 10:24:16;;;;;;;23.50;15.10;;;;;;;3.09;81.72;95184.50;4823572;29;20054;-78
2023/12/01 10:26:46;;;;;;;24.67;15.25;;;;;;;3.07;81.13;95176.16;4823839;29;20055;-79
2023/12/01 10:29:28;;;;;;;21.92;14.20;;;;;;;3.04;80.90;95186.78;4826112;29;20062;-79
2023/12/01 10:32:00;;;;;;;25.35;14.93;;;;;;;3.03;81.09;95174.88;4833534;29;20054;-79
2023/12/01 10:34:27;;;;;;;29.02;15.75;;;;;;;3.03;80.76;95175.66;4832810;29;20145;-78
2023/12/01 10:36:56;;;;;;;24.83;15.80;;;;;;;3.02;80.83;95162.97;4835433;29;20061;-79
2023/12/01 10:39:29;;;;;;;29.05;16.85;;;;;;;2.99;80.73;95150.41;4837188;29;20078;-79
2023/12/01 10:41:58;;;;;;;29.90;16.17;;;;;;;2.95;80.61;95141.44;4832239;29;20085;-78
2023/12/01 10:44:34;;;;;;;25.63;16.45;;;;;;;2.93;80.95;95148.53;4826827;29;20131;-79
2023/12/01 10:47:03;;;;;;;26.40;16.13;;;;;;;2.93;80.58;95158.81;4826213;29;20143;-79
2023/12/01 10:49:31;;;;;;;25.17;16.60;;;;;;;2.91;81.03;95160.75;4826639;29;20102;-79
2023/12/01 10:52:01;;;;;;;26.67;15.27;;;;;;;2.92;82.60;95167.53;4826598;29;20085;-79
2023/12/01 10:54:29;;;;;;;26.38;14.50;;;;;;;2.97;83.31;95158.31;4826694;29;20498;-79
2023/12/01 10:57:10;;;;;;;26.73;16.00;;;;;;;2.99;81.95;95158.94;4826096;29;20055;-80
2023/12/01 10:59:44;;;;;;;23.92;14.18;;;;;;;2.99;82.10;95158.16;4826594;29;20050;-79
2023/12/01 11:02:14;;;;;;;24.60;14.85;;;;;;;2.98;81.58;95161.72;4826686;29;20054;-79
2023/12/01 11:04:45;;;;;;;24.35;15.32;;;;;;;2.95;81.37;95156.88;4826401;29;20051;-78
2023/12/01 11:07:26;;;;;;;19.60;13.73;;;;;;;2.95;81.36;95162.03;4826511;29;20062;-79
2023/12/01 11:10:02;;;;;;;23.80;14.07;;;;;;;2.96;80.91;95163.66;4826881;29;20099;-79
2023/12/01 11:12:39;;;;;;;24.67;15.30;;;;;;;2.92;80.78;95155.47;4826226;29;20062;-79
2023/12/01 11:15:16;;;;;;;28.67;16.08;;;;;;;2.89;81.06;95148.88;4826084;29;20603;-78
2023/12/01 11:17:44;;;;;;;21.45;14.65;;;;;;;2.90;81.34;95139.38;4826039;29;20558;-79
2023/12/01 11:20:34;;;;;;;24.40;15.48;;;;;;;2.89;81.77;95136.00;4825730;29;20046;-78
2023/12/01 11:23:22;;;;;;;26.05;14.15;;;;;;;2.94;81.92;95127.75;4826027;29;20064;-78
2023/12/01 11:25:55;;;;;;;21.63;13.52;;;;;;;3.02;82.78;95129.50;4826349;29;20046;-79
2023/12/01 11:28:28;;;;;;;19.75;12.98;;;;;;;3.04;82.23;95135.25;4826166;29;20509;-79
2023/12/01 11:31:08;;;;;;;21.88;14.52;;;;;;;3.05;80.98;95126.56;4826157;29;20082;-78
2023/12/01 11:33:39;;;;;;;20.35;13.73;;;;;;;3.00;80.75;95119.34;4826178;29;20111;-79